Time;durP1;ratioP1;P1;durP2;ratioP2;P2;SDS_P1;SDS_P2;PMS_P1;PMS_P2;Temp;Humidity;BMP_temperature;BMP_pressure;BME280_temperature;BME280_humidity;BME280_pressure;Samples;Min_cycle;Max_cycle;Signal;HPM_P1;HPM_P2
2022/10/12 00:00:40;;;;;;;24.60;9.65;;;;;;;4.58;89.54;100330.69;8503668;27;20043;-81
2022/10/12 00:05:01;;;;;;;14.38;6.05;;;;;;;4.58;89.64;100336.06;8517773;27;20047;-81
2022/10/12 00:09:02;;;;;;;16.95;5.15;;;;;;;4.59;89.55;100321.63;8487703;27;20051;-82
2022/10/12 00:13:03;;;;;;;12.13;4.55;;;;;;;4.61;89.63;100330.22;8506041;27;20414;-82
2022/10/12 00:17:04;;;;;;;21.30;5.97;;;;;;;4.60;89.94;100323.22;8515979;27;20047;-81
2022/10/12 00:21:14;;;;;;;15.43;4.90;;;;;;;4.59;89.72;100337.69;8485061;27;20057;-81
2022/10/12 00:25:15;;;;;;;18.10;6.15;;;;;;;4.55;89.83;100336.50;8512479;27;20479;-81
2022/10/12 00:29:16;;;;;;;21.48;9.82;;;;;;;4.52;89.85;100337.00;8510215;27;20085;-81
2022/10/12 00:33:17;;;;;;;13.48;6.30;;;;;;;4.50;89.89;100333.75;8500110;27;20506;-81
2022/10/12 00:37:18;;;;;;;19.63;6.97;;;;;;;4.52;89.91;100337.00;8503641;27;20047;-82
2022/10/12 00:41:21;;;;;;;20.75;6.65;;;;;;;4.52;89.89;100339.69;8522425;27;20046;-81
2022/10/12 00:45:24;;;;;;;13.40;4.68;;;;;;;4.51;90.03;100340.72;8493820;27;20055;-81
2022/10/12 00:49:25;;;;;;;10.82;5.13;;;;;;;4.53;90.15;100344.00;8495584;27;20137;-82
2022/10/12 00:53:28;;;;;;;13.93;5.78;;;;;;;4.49;90.17;100342.84;8502508;27;20039;-82
2022/10/12 00:57:29;;;;;;;18.15;5.03;;;;;;;4.50;90.26;100344.44;8402132;28;20041;-81
2022/10/12 01:01:32;;;;;;;20.33;6.88;;;;;;;4.48;90.09;100341.22;8405875;28;20516;-81
2022/10/12 01:05:34;;;;;;;13.35;5.68;;;;;;;4.49;90.49;100337.50;8420246;28;20460;-82
2022/10/12 01:09:35;;;;;;;10.40;4.85;;;;;;;4.47;90.40;100323.53;8404191;28;20052;-83
2022/10/12 01:13:36;;;;;;;13.32;3.50;;;;;;;4.46;90.45;100337.97;8414325;28;20093;-83
2022/10/12 01:17:44;;;;;;;9.48;3.17;;;;;;;4.45;90.16;100336.31;8409991;28;20598;-82
2022/10/12 01:21:52;;;;;;;8.30;2.90;;;;;;;4.44;90.61;100344.59;8405237;28;20044;-82
2022/10/12 01:26:05;;;;;;;8.50;3.00;;;;;;;4.42;90.57;100342.16;8429681;27;20278;-83
2022/10/12 01:30:13;;;;;;;10.20;2.92;;;;;;;4.40;90.59;100328.19;8506847;27;20133;-82
2022/10/12 01:34:21;;;;;;;7.63;2.42;;;;;;;4.38;90.65;100333.00;8516807;27;20384;-82
2022/10/12 01:38:47;;;;;;;15.73;2.97;;;;;;;4.32;90.64;100336.63;8506195;27;20050;-81
2022/10/12 01:42:48;;;;;;;14.70;3.00;;;;;;;4.25;90.75;100330.59;8481665;27;20289;-82
2022/10/12 01:46:51;;;;;;;9.57;2.92;;;;;;;4.26;90.81;100334.88;8498974;27;20074;-82
2022/10/12 01:50:54;;;;;;;7.35;2.28;;;;;;;4.22;90.83;100341.78;8505786;27;20042;-82
2022/10/12 01:54:58;;;;;;;10.07;2.47;;;;;;;4.20;90.76;100335.84;8487401;27;20115;-83
2022/10/12 01:59:41;;;;;;;10.95;2.40;;;;;;;4.17;90.82;100333.66;8501014;27;20050;-83
2022/10/12 02:04:07;;;;;;;7.53;2.00;;;;;;;4.11;90.82;100334.59;8327030;28;20108;-82
2022/10/12 02:08:19;;;;;;;6.13;1.92;;;;;;;4.11;90.94;100329.25;8347437;28;20490;-82
2022/10/12 02:12:23;;;;;;;5.93;2.03;;;;;;;4.07;90.94;100328.09;8357490;28;20413;-84
2022/10/12 02:16:31;;;;;;;12.00;2.35;;;;;;;4.03;90.93;100332.25;8352556;28;20045;-82
2022/10/12 02:20:36;;;;;;;9.73;2.28;;;;;;;4.02;90.74;100336.00;8351288;28;20118;-81
2022/10/12 02:24:40;;;;;;;12.30;2.15;;;;;;;4.01;90.93;100334.38;8312651;28;20053;-83
2022/10/12 02:28:41;;;;;;;11.30;2.28;;;;;;;3.97;90.98;100338.56;8323851;28;20056;-82
2022/10/12 02:32:53;;;;;;;6.32;1.73;;;;;;;3.90;91.03;100332.53;8329481;28;20042;-82
2022/10/12 02:37:00;;;;;;;7.03;1.95;;;;;;;3.87;90.85;100327.66;8299973;28;20465;-82
2022/10/12 02:41:23;;;;;;;5.18;2.00;;;;;;;3.81;90.93;100340.91;8495610;27;20082;-82
2022/10/12 02:45:25;;;;;;;6.80;2.40;;;;;;;3.75;91.07;100336.50;8507009;27;20047;-81
2022/10/12 02:49:27;;;;;;;7.47;2.10;;;;;;;3.75;90.85;100333.81;8510613;27;20110;-82
2022/10/12 02:53:29;;;;;;;7.28;1.77;;;;;;;3.76;90.75;100338.13;8488781;27;20484;-82
2022/10/12 02:57:30;;;;;;;11.10;2.10;;;;;;;3.76;90.99;100332.78;8446216;27;20043;-83
2022/10/12 03:01:31;;;;;;;9.73;1.92;;;;;;;3.76;90.92;100330.09;8507879;27;20111;-83
2022/10/12 03:05:32;;;;;;;12.25;2.70;;;;;;;3.76;91.04;100332.78;8503983;27;20088;-83
2022/10/12 03:09:33;;;;;;;7.38;1.85;;;;;;;3.79;90.78;100324.31;8453427;28;20043;-83
2022/10/12 03:13:34;;;;;;;11.52;2.30;;;;;;;3.79;90.78;100321.63;8506241;27;20050;-82
2022/10/12 03:17:35;;;;;;;15.20;2.47;;;;;;;3.79;91.06;100332.31;8481679;27;20481;-83
2022/10/12 03:21:36;;;;;;;13.68;2.08;;;;;;;3.76;91.03;100327.44;8513556;27;20084;-83
2022/10/12 03:25:37;;;;;;;17.20;2.60;;;;;;;3.73;90.99;100330.59;8507904;27;20048;-82
2022/10/12 03:29:38;;;;;;;18.45;2.38;;;;;;;3.73;91.09;100333.25;8482402;27;20034;-82
2022/10/12 03:33:38;;;;;;;8.90;2.10;;;;;;;3.75;91.47;100330.34;8508980;27;20134;-82
2022/10/12 03:37:39;;;;;;;9.00;2.63;;;;;;;3.73;91.25;100333.25;8495625;27;20151;-82
2022/10/12 03:41:40;;;;;;;11.50;2.35;;;;;;;3.71;91.25;100335.34;8505316;27;20104;-83
2022/10/12 03:45:41;;;;;;;10.50;2.47;;;;;;;3.68;91.40;100335.81;8507474;27;20067;-82
2022/10/12 03:49:42;;;;;;;9.35;2.47;;;;;;;3.70;91.38;100339.06;8491045;27;20126;-82
2022/10/12 03:53:43;;;;;;;7.80;2.03;;;;;;;3.71;91.43;100335.34;8506537;27;20035;-83
2022/10/12 03:57:44;;;;;;;10.05;2.47;;;;;;;3.71;91.57;100340.69;8453099;27;20053;-82
2022/10/12 04:01:45;;;;;;;7.40;1.95;;;;;;;3.69;91.76;100337.44;8519474;27;20077;-83
2022/10/12 04:05:57;;;;;;;12.10;2.50;;;;;;;3.63;91.68;100343.72;8501788;27;20051;-82
2022/10/12 04:09:58;;;;;;;11.13;2.10;;;;;;;3.57;91.89;100333.97;8511536;27;20687;-82
2022/10/12 04:13:59;;;;;;;4.40;1.70;;;;;;;3.51;91.69;100340.22;8516702;27;20047;-82
2022/10/12 04:18:00;;;;;;;10.45;2.10;;;;;;;3.50;91.79;100348.47;8463356;27;20138;-83
2022/10/12 04:22:01;;;;;;;8.02;1.90;;;;;;;3.49;91.62;100355.66;8479192;27;20043;-84
2022/10/12 04:26:02;;;;;;;11.45;2.08;;;;;;;3.47;91.61;100355.09;8507627;27;20433;-84
2022/10/12 04:30:03;;;;;;;8.60;2.33;;;;;;;3.44;91.69;100350.19;8485058;27;20107;-84
2022/10/12 04:34:04;;;;;;;10.55;2.20;;;;;;;3.42;91.75;100346.97;8516178;27;20053;-84
2022/10/12 04:38:05;;;;;;;8.65;2.53;;;;;;;3.42;91.81;100352.31;8504610;27;20042;-84
2022/10/12 04:42:06;;;;;;;8.43;2.60;;;;;;;3.39;91.80;100347.41;8509331;27;20043;-83
2022/10/12 04:46:07;;;;;;;9.23;2.75;;;;;;;3.37;91.58;100349.53;8446470;27;20043;-84
2022/10/12 04:50:09;;;;;;;9.02;2.65;;;;;;;3.37;91.75;100350.34;8521917;27;20054;-84
2022/10/12 04:54:10;;;;;;;13.98;2.70;;;;;;;3.37;91.69;100360.22;8474544;27;20111;-83
2022/10/12 04:58:12;;;;;;;18.50;2.63;;;;;;;3.36;91.73;100353.22;8509383;27;20130;-83
2022/10/12 05:02:13;;;;;;;7.18;2.40;;;;;;;3.37;91.99;100354.88;8506563;27;20556;-83
2022/10/12 05:06:14;;;;;;;12.68;3.47;;;;;;;3.33;92.10;100348.38;8508129;27;20058;-84
2022/10/12 05:10:15;;;;;;;15.30;4.30;;;;;;;3.29;92.00;100360.53;8503595;27;20527;-84
2022/10/12 05:14:16;;;;;;;19.75;5.55;;;;;;;3.26;92.19;100363.66;8523314;27;20035;-84
2022/10/12 05:18:17;;;;;;;14.50;4.13;;;;;;;3.24;92.13;100365.75;8518629;27;20584;-83
2022/10/12 05:22:18;;;;;;;14.77;3.67;;;;;;;3.22;92.18;100367.84;8521430;27;20555;-83
2022/10/12 05:26:19;;;;;;;15.25;3.47;;;;;;;3.23;92.00;100369.44;8516217;27;20139;-84
2022/10/12 05:30:20;;;;;;;10.57;3.25;;;;;;;3.28;91.85;100361.56;8521006;27;20049;-84
2022/10/12 05:34:21;;;;;;;7.75;2.67;;;;;;;3.32;91.94;100362.75;8519722;27;20039;-83
2022/10/12 05:38:22;;;;;;;17.52;5.05;;;;;;;3.37;92.02;100354.88;8519369;27;20047;-84
2022/10/12 05:42:23;;;;;;;22.25;6.25;;;;;;;3.44;92.18;100358.22;8527547;27;20072;-83
2022/10/12 05:46:24;;;;;;;16.60;4.75;;;;;;;3.48;92.25;100356.72;8509168;27;20066;-83
2022/10/12 05:50:25;;;;;;;17.73;6.25;;;;;;;3.52;92.03;100368.56;8497412;27;20046;-83
2022/10/12 05:54:26;;;;;;;6.72;2.70;;;;;;;3.58;92.21;100364.97;8516152;27;20062;-83
2022/10/12 05:58:28;;;;;;;11.02;3.80;;;;;;;3.64;92.16;100374.75;8505983;27;20433;-83
2022/10/12 06:02:29;;;;;;;12.07;3.42;;;;;;;3.72;92.13;100369.03;8512150;27;20119;-83
2022/10/12 06:06:30;;;;;;;8.55;2.95;;;;;;;3.79;92.09;100380.44;8528422;27;20071;-82
2022/10/12 06:10:31;;;;;;;8.45;2.50;;;;;;;3.88;91.64;100377.38;8511797;27;20034;-83
2022/10/12 06:14:32;;;;;;;12.40;3.15;;;;;;;3.97;91.96;100386.66;8511341;27;20066;-83
2022/10/12 06:18:33;;;;;;;13.70;2.70;;;;;;;4.08;91.95;100383.16;8489216;27;20042;-83
2022/10/12 06:22:35;;;;;;;12.85;3.63;;;;;;;4.18;91.51;100388.72;8525102;27;20535;-83
2022/10/12 06:26:36;;;;;;;58.85;16.42;;;;;;;4.32;91.35;100390.09;8472031;27;20380;-83
2022/10/12 06:30:37;;;;;;;36.30;12.65;;;;;;;4.47;90.82;100387.72;8517856;27;20038;-83
2022/10/12 06:34:38;;;;;;;28.63;7.25;;;;;;;4.61;90.97;100383.72;8516831;27;20131;-83
2022/10/12 06:38:38;;;;;;;33.70;10.73;;;;;;;4.80;91.10;100391.56;8479092;27;20547;-83
2022/10/12 06:42:39;;;;;;;33.95;10.02;;;;;;;4.98;90.95;100388.69;8513209;27;20479;-82
2022/10/12 06:46:40;;;;;;;17.38;6.95;;;;;;;5.16;90.83;100385.78;8514889;27;20050;-83
2022/10/12 06:50:41;;;;;;;28.83;7.15;;;;;;;5.35;91.02;100384.50;8502211;27;20425;-83
2022/10/12 06:54:45;;;;;;;24.08;7.05;;;;;;;5.53;91.18;100381.59;8505558;27;20047;-83
2022/10/12 06:58:46;;;;;;;29.35;7.10;;;;;;;5.73;91.39;100396.34;8475243;27;20400;-83
2022/10/12 07:02:51;;;;;;;23.23;7.55;;;;;;;5.91;91.53;100398.81;8472955;27;20059;-83
2022/10/12 07:06:52;;;;;;;26.65;8.13;;;;;;;6.09;91.66;100401.19;8458925;27;20058;-83
2022/10/12 07:10:59;;;;;;;24.83;9.13;;;;;;;6.23;91.95;100397.09;8501522;27;20138;-84
2022/10/12 07:15:00;;;;;;;36.97;9.70;;;;;;;6.39;91.81;100399.97;8501150;27;20115;-84
2022/10/12 07:19:01;;;;;;;40.10;15.10;;;;;;;6.53;91.78;100393.16;8500848;27;20424;-84
2022/10/12 07:23:02;;;;;;;45.22;15.77;;;;;;;6.66;92.16;100400.84;8501580;27;20077;-84
2022/10/12 07:27:06;;;;;;;43.88;14.10;;;;;;;6.81;92.16;100403.69;8483433;27;20609;-81
2022/10/12 07:31:11;;;;;;;46.03;15.63;;;;;;;6.96;92.24;100398.47;8504746;27;20057;-81
2022/10/12 07:35:12;;;;;;;44.15;15.70;;;;;;;7.12;92.34;100400.25;8482990;27;20541;-81
2022/10/12 07:39:13;;;;;;;59.20;18.13;;;;;;;7.28;92.25;100395.00;8517481;27;20407;-81
2022/10/12 07:43:14;;;;;;;49.78;14.80;;;;;;;7.42;92.50;100390.81;8522763;27;20042;-80
2022/10/12 07:47:16;;;;;;;31.35;11.32;;;;;;;7.60;92.76;100395.81;8484639;27;20498;-81
2022/10/12 07:51:17;;;;;;;35.28;11.50;;;;;;;7.75;92.72;100398.59;8514422;27;20053;-80
2022/10/12 07:55:18;;;;;;;34.10;11.35;;;;;;;7.91;92.71;100397.63;8508102;27;20071;-81
2022/10/12 07:59:20;;;;;;;29.85;10.10;;;;;;;8.05;92.14;100393.41;8525869;27;20066;-80
2022/10/12 08:03:21;;;;;;;34.13;10.70;;;;;;;8.18;92.11;100388.63;8509329;27;20046;-80
2022/10/12 08:07:22;;;;;;;30.30;11.50;;;;;;;8.34;92.03;100390.34;8490552;27;20065;-80
2022/10/12 08:11:24;;;;;;;26.58;10.95;;;;;;;8.50;91.79;100394.72;8517045;27;20088;-80
2022/10/12 08:15:26;;;;;;;29.30;8.77;;;;;;;8.59;91.80;100387.75;8514319;27;20074;-79
2022/10/12 08:19:27;;;;;;;36.90;8.93;;;;;;;8.73;91.32;100399.66;8521863;27;20107;-80
2022/10/12 08:23:28;;;;;;;25.88;9.10;;;;;;;8.89;91.09;100393.22;8507400;27;20047;-81
2022/10/12 08:27:30;;;;;;;22.90;7.78;;;;;;;9.04;90.79;100386.25;8507195;27;20047;-80
2022/10/12 08:31:31;;;;;;;28.77;9.18;;;;;;;9.24;89.87;100405.16;8514069;27;20046;-81
2022/10/12 08:35:32;;;;;;;27.60;9.13;;;;;;;9.41;89.17;100405.69;8515139;27;20046;-79
2022/10/12 08:39:32;;;;;;;30.08;8.60;;;;;;;9.58;88.09;100406.22;8521741;27;20049;-81
2022/10/12 08:43:41;;;;;;;25.05;8.60;;;;;;;9.78;86.97;100404.59;8507051;27;20422;-80
2022/10/12 08:47:46;;;;;;;23.00;7.80;;;;;;;9.88;86.54;100401.91;8502616;27;20105;-80
2022/10/12 08:52:00;;;;;;;34.42;10.05;;;;;;;10.00;85.99;100397.00;8521623;27;20369;-80
2022/10/12 08:56:02;;;;;;;23.92;7.63;;;;;;;10.12;85.31;100395.63;8491543;27;20061;-81
2022/10/12 09:00:08;;;;;;;27.77;6.43;;;;;;;10.28;84.42;100390.19;8501311;27;20035;-80
2022/10/12 09:04:16;;;;;;;32.35;7.32;;;;;;;10.37;83.67;100392.06;8487736;27;20043;-80
2022/10/12 09:08:35;;;;;;;24.23;7.10;;;;;;;10.48;83.06;100390.94;8487250;27;20050;-80
2022/10/12 09:12:54;;;;;;;18.38;6.60;;;;;;;10.57;82.47;100391.97;8483155;27;20041;-80
2022/10/12 09:16:56;;;;;;;29.90;6.85;;;;;;;10.66;82.00;100394.91;8492582;27;20055;-80
2022/10/12 09:20:58;;;;;;;25.75;9.75;;;;;;;10.82;81.73;100398.34;8497813;27;20039;-80
2022/10/12 09:25:00;;;;;;;27.65;7.78;;;;;;;10.97;81.22;100390.16;8491411;27;20047;-80
2022/10/12 09:29:03;;;;;;;25.65;7.32;;;;;;;11.12;80.53;100395.44;8505814;27;20043;-81
2022/10/12 09:33:27;;;;;;;23.13;5.10;;;;;;;11.31;79.50;100401.00;8512642;27;20035;-80
2022/10/12 09:37:30;;;;;;;20.00;4.50;;;;;;;11.32;78.68;100392.59;8498839;27;20125;-81
2022/10/12 09:41:39;;;;;;;18.85;5.22;;;;;;;11.35;78.30;100392.03;8472911;27;20058;-80
2022/10/12 09:45:41;;;;;;;23.83;5.88;;;;;;;11.46;78.18;100391.97;8527845;27;20055;-80
2022/10/12 09:49:44;;;;;;;22.40;5.80;;;;;;;11.61;77.42;100389.13;8516752;27;20045;-80
2022/10/12 09:53:47;;;;;;;18.27;5.03;;;;;;;11.75;76.39;100390.09;8404032;28;20059;-80
2022/10/12 09:57:54;;;;;;;14.98;4.43;;;;;;;11.84;75.96;100383.00;8405934;28;20104;-80
2022/10/12 10:02:20;;;;;;;17.48;4.63;;;;;;;12.08;75.67;100394.66;8397402;28;20041;-80
2022/10/12 10:06:24;;;;;;;14.63;5.00;;;;;;;12.27;74.87;100392.78;8414169;28;20056;-80
2022/10/12 10:10:25;;;;;;;18.42;4.60;;;;;;;12.36;74.85;100389.47;8399138;28;20127;-80
2022/10/12 10:14:28;;;;;;;19.85;3.70;;;;;;;12.52;74.08;100382.75;8403731;28;20044;-81
2022/10/12 10:18:34;;;;;;;19.83;4.75;;;;;;;12.66;73.33;100383.66;8403757;28;20052;-80
2022/10/12 10:22:35;;;;;;;11.25;3.10;;;;;;;12.74;72.82;100385.72;8417991;28;20064;-80
2022/10/12 10:26:51;;;;;;;15.77;4.10;;;;;;;12.73;71.87;100389.53;8465482;28;20543;-80
2022/10/12 10:30:57;;;;;;;16.40;6.05;;;;;;;12.78;71.91;100380.53;8465057;28;20047;-80
2022/10/12 10:35:05;;;;;;;27.95;6.20;;;;;;;12.81;71.79;100383.44;8442677;28;20081;-80
2022/10/12 10:39:15;;;;;;;22.38;5.53;;;;;;;12.92;71.04;100379.50;8455631;28;20469;-79
2022/10/12 10:43:28;;;;;;;22.48;6.07;;;;;;;12.98;70.58;100375.63;8447129;28;20055;-81
2022/10/12 10:47:34;;;;;;;16.50;4.10;;;;;;;13.07;70.44;100378.47;8435409;28;20052;-81
2022/10/12 10:51:52;;;;;;;10.63;4.05;;;;;;;13.05;69.28;100370.63;8452751;28;20086;-82
2022/10/12 10:56:23;;;;;;;28.17;4.95;;;;;;;13.11;68.81;100358.63;8465176;27;20449;-80
2022/10/12 11:00:24;;;;;;;17.85;5.78;;;;;;;13.27;68.90;100358.41;8432707;28;20048;-80
2022/10/12 11:04:33;;;;;;;19.55;4.13;;;;;;;13.44;67.97;100355.94;8449541;28;20139;-81
2022/10/12 11:08:34;;;;;;;11.77;4.07;;;;;;;13.44;67.25;100355.94;8427413;28;20142;-80
2022/10/12 11:12:41;;;;;;;21.38;6.25;;;;;;;13.54;67.29;100350.31;8449519;28;20075;-80
2022/10/12 11:16:49;;;;;;;14.43;3.67;;;;;;;13.74;66.08;100350.00;8477668;27;20126;-80
2022/10/12 11:20:55;;;;;;;19.27;4.80;;;;;;;13.93;65.72;100347.19;8482594;27;20034;-81
2022/10/12 11:25:30;;;;;;;13.77;4.32;;;;;;;13.92;65.78;100340.94;8481996;27;20403;-80
2022/10/12 11:29:33;;;;;;;13.60;4.20;;;;;;;13.84;64.88;100333.50;8362862;28;20604;-81
2022/10/12 11:33:37;;;;;;;15.60;4.30;;;;;;;13.99;65.66;100339.75;8347112;28;20048;-81
2022/10/12 11:37:46;;;;;;;17.20;4.60;;;;;;;14.14;66.18;100336.72;8347324;28;20132;-81
2022/10/12 11:41:49;;;;;;;13.93;4.40;;;;;;;14.27;65.18;100330.50;8340948;28;20041;-82
2022/10/12 11:45:54;;;;;;;14.90;4.25;;;;;;;14.32;65.54;100333.09;8357474;28;20080;-81
2022/10/12 11:50:00;;;;;;;14.57;3.70;;;;;;;14.09;64.92;100328.69;8349841;28;20115;-81
2022/10/12 11:54:10;;;;;;;15.35;3.90;;;;;;;13.97;65.24;100321.03;8359584;28;20103;-81
2022/10/12 11:58:26;;;;;;;23.48;3.83;;;;;;;14.16;64.73;100329.09;8322685;28;20491;-80
2022/10/12 12:02:37;;;;;;;11.68;3.47;;;;;;;14.28;63.29;100326.66;8335989;28;20048;-81
2022/10/12 12:06:49;;;;;;;12.65;3.40;;;;;;;14.27;63.45;100330.50;8496828;27;20501;-81
2022/10/12 12:11:23;;;;;;;17.63;3.97;;;;;;;14.32;63.70;100327.66;8511940;27;20045;-81
2022/10/12 12:15:24;;;;;;;14.77;3.70;;;;;;;14.34;62.62;100320.81;8542714;27;20070;-81
2022/10/12 12:19:40;;;;;;;13.27;3.60;;;;;;;14.43;62.88;100318.22;8451764;27;20072;-81
2022/10/12 12:23:51;;;;;;;11.18;3.45;;;;;;;14.49;61.41;100316.97;8506995;27;20142;-82
2022/10/12 12:28:05;;;;;;;10.40;3.40;;;;;;;14.45;60.67;100316.00;8489554;27;20501;-81
2022/10/12 12:32:06;;;;;;;12.82;3.40;;;;;;;14.44;60.96;100313.56;8516572;27;20511;-82
2022/10/12 12:36:08;;;;;;;12.55;3.15;;;;;;;14.39;61.27;100300.91;8490920;27;20073;-82
2022/10/12 12:40:22;;;;;;;9.70;3.50;;;;;;;14.39;60.78;100309.06;8489402;27;20039;-81
2022/10/12 12:44:43;;;;;;;13.05;3.10;;;;;;;14.33;60.56;100302.88;8495458;27;20046;-81
2022/10/12 12:48:44;;;;;;;18.98;3.80;;;;;;;14.35;60.98;100302.59;8531197;27;20043;-81
2022/10/12 12:52:45;;;;;;;11.48;3.10;;;;;;;14.31;61.40;100307.03;8488692;27;20518;-82
2022/10/12 12:57:11;;;;;;;13.95;3.25;;;;;;;14.30;61.71;100308.94;8489376;27;20050;-81
2022/10/12 13:01:30;;;;;;;12.07;2.88;;;;;;;15.26;57.19;100303.22;8463410;28;20115;-81
2022/10/12 13:05:37;;;;;;;;;;;;;;;16.21;56.69;100296.31;8482241;27;20059;-81
2022/10/12 13:09:56;;;;;;;12.20;3.33;;;;;;;16.79;56.32;100290.47;8472993;27;19920;-82
2022/10/12 13:14:03;;;;;;;14.45;3.38;;;;;;;16.93;56.72;100290.31;8485905;27;20098;-80
2022/10/12 13:18:27;;;;;;;13.65;3.15;;;;;;;17.03;55.52;100284.50;8487043;27;20108;-81
2022/10/12 13:22:32;;;;;;;11.80;2.45;;;;;;;17.07;54.26;100301.88;8469187;27;20137;-81
2022/10/12 13:26:34;;;;;;;8.57;2.55;;;;;;;16.64;55.38;100281.97;8466156;27;20050;-82
2022/10/12 13:30:46;;;;;;;13.50;2.90;;;;;;;16.14;55.71;100274.16;8499093;27;20496;-81
2022/10/12 13:34:51;;;;;;;16.60;2.97;;;;;;;15.87;55.00;100277.13;8505030;27;20506;-83
2022/10/12 13:38:56;;;;;;;11.10;3.00;;;;;;;15.83;54.45;100274.22;8505140;27;20043;-81
2022/10/12 13:43:17;;;;;;;17.25;2.85;;;;;;;15.37;55.24;100280.09;8520940;27;20096;-84
2022/10/12 13:47:25;;;;;;;12.75;2.90;;;;;;;15.02;54.69;100264.63;8505881;27;20144;-86
2022/10/12 13:51:28;;;;;;;14.77;3.22;;;;;;;14.88;56.57;100272.06;8521819;27;20038;-81
2022/10/12 13:55:30;;;;;;;9.25;2.63;;;;;;;14.70;57.71;100269.19;8477230;27;20481;-82
2022/10/12 13:59:36;;;;;;;21.20;3.97;;;;;;;14.53;57.83;100274.50;8486235;27;20045;-82
2022/10/12 14:03:43;;;;;;;45.38;15.43;;;;;;;14.40;58.47;100275.34;8507578;27;20062;-81
2022/10/12 14:07:45;;;;;;;97.85;30.95;;;;;;;14.32;58.71;100273.31;8523182;27;20157;-81
2022/10/12 14:11:46;;;;;;;27.27;7.95;;;;;;;14.19;59.11;100263.28;8493267;27;20043;-82
2022/10/12 14:15:48;;;;;;;54.47;25.85;;;;;;;14.14;59.50;100266.09;8490216;27;20114;-81
2022/10/12 14:19:52;;;;;;;24.90;8.93;;;;;;;14.01;59.60;100262.28;8476150;27;20506;-80
2022/10/12 14:24:13;;;;;;;29.75;9.77;;;;;;;13.87;60.09;100256.88;8504087;27;20043;-81
2022/10/12 14:28:23;;;;;;;19.05;5.85;;;;;;;13.76;61.03;100249.22;8519566;27;20048;-80
2022/10/12 14:32:33;;;;;;;24.30;5.82;;;;;;;13.60;61.54;100251.41;8452596;28;20568;-82
2022/10/12 14:36:34;;;;;;;28.35;7.75;;;;;;;13.54;61.72;100247.19;8427239;28;20055;-82
2022/10/12 14:40:38;;;;;;;48.78;12.10;;;;;;;13.44;62.58;100244.69;8442284;28;20047;-82
2022/10/12 14:44:42;;;;;;;32.20;8.65;;;;;;;13.35;62.80;100254.63;8452945;28;20058;-81
2022/10/12 14:48:43;;;;;;;33.17;10.05;;;;;;;13.27;63.31;100252.59;8450113;28;20520;-81
2022/10/12 14:52:49;;;;;;;52.58;12.88;;;;;;;13.18;63.68;100251.66;8453815;28;20055;-81
2022/10/12 14:56:50;;;;;;;39.08;10.38;;;;;;;13.10;64.05;100243.09;8450158;28;20060;-81
2022/10/12 15:00:51;;;;;;;39.33;10.77;;;;;;;13.01;64.74;100239.44;8440179;28;20101;-80
2022/10/12 15:04:53;;;;;;;26.10;8.50;;;;;;;12.92;65.35;100238.50;8473451;27;20045;-81
2022/10/12 15:08:55;;;;;;;48.75;13.15;;;;;;;12.82;66.20;100238.69;8518239;27;20601;-81
2022/10/12 15:12:58;;;;;;;18.65;5.50;;;;;;;12.66;66.73;100237.31;8517855;27;20429;-81
2022/10/12 15:16:59;;;;;;;21.13;4.90;;;;;;;12.53;67.63;100236.13;8519873;27;20101;-81
2022/10/12 15:21:02;;;;;;;19.50;4.50;;;;;;;12.37;68.48;100239.38;8521502;27;20174;-81
2022/10/12 15:25:16;;;;;;;15.52;4.38;;;;;;;12.16;69.63;100238.88;8523824;27;20170;-81
2022/10/12 15:29:17;;;;;;;20.30;4.38;;;;;;;11.95;70.55;100238.28;8506025;27;20134;-81
2022/10/12 15:33:18;;;;;;;11.68;4.43;;;;;;;11.76;71.52;100229.34;8519415;27;20038;-81
2022/10/12 15:37:19;;;;;;;21.38;5.40;;;;;;;11.54;72.42;100227.13;8512953;27;20411;-81
2022/10/12 15:41:22;;;;;;;23.90;5.40;;;;;;;11.30;73.90;100227.13;8506922;27;20030;-81
2022/10/12 15:45:26;;;;;;;22.58;6.70;;;;;;;11.09;74.68;100225.72;8505165;27;20042;-81
2022/10/12 15:49:27;;;;;;;23.15;6.28;;;;;;;10.91;75.82;100223.69;8516696;27;20081;-81
2022/10/12 15:53:28;;;;;;;21.40;6.07;;;;;;;10.74;76.42;100220.59;8505828;27;20095;-80
2022/10/12 15:57:29;;;;;;;18.17;6.22;;;;;;;10.52;77.16;100221.81;8517565;27;20456;-80
2022/10/12 16:01:33;;;;;;;18.80;6.20;;;;;;;10.35;77.99;100216.03;8495808;27;20439;-81
2022/10/12 16:05:35;;;;;;;15.73;5.93;;;;;;;10.16;78.71;100223.16;8511641;27;20043;-80
2022/10/12 16:09:36;;;;;;;23.85;6.28;;;;;;;10.00;78.95;100218.88;8514963;27;20081;-81
2022/10/12 16:13:38;;;;;;;16.30;6.75;;;;;;;9.82;79.73;100216.81;8526954;27;20548;-81
2022/10/12 16:17:39;;;;;;;15.30;5.75;;;;;;;9.64;80.00;100210.94;8528292;27;20049;-81
2022/10/12 16:21:40;;;;;;;16.90;5.57;;;;;;;9.50;80.14;100225.28;8517703;27;20380;-81
2022/10/12 16:25:41;;;;;;;19.73;5.70;;;;;;;9.33;80.59;100215.63;8496869;27;20519;-81
2022/10/12 16:29:42;;;;;;;27.98;10.40;;;;;;;9.18;80.92;100218.38;8480115;27;20061;-80
2022/10/12 16:33:44;;;;;;;16.80;7.95;;;;;;;9.09;81.04;100213.81;8487296;27;20399;-81
2022/10/12 16:37:45;;;;;;;20.10;7.93;;;;;;;8.99;80.74;100219.22;8526232;27;20439;-81
2022/10/12 16:41:46;;;;;;;15.93;6.57;;;;;;;8.84;81.37;100218.13;8520188;27;20584;-80
2022/10/12 16:45:54;;;;;;;14.02;4.55;;;;;;;8.74;81.53;100212.72;8526168;27;20043;-81
2022/10/12 16:49:55;;;;;;;13.75;4.78;;;;;;;8.63;81.55;100211.13;8493809;27;20098;-81
2022/10/12 16:53:56;;;;;;;38.85;13.00;;;;;;;8.53;81.63;100221.88;8507590;27;20081;-81
2022/10/12 16:57:57;;;;;;;40.58;17.80;;;;;;;8.42;81.78;100231.03;8521126;27;20050;-81
2022/10/12 17:01:58;;;;;;;24.73;6.70;;;;;;;8.36;81.65;100226.69;8519655;27;20425;-81
2022/10/12 17:05:59;;;;;;;28.50;15.05;;;;;;;8.29;81.93;100236.91;8523984;27;20146;-81
2022/10/12 17:10:00;;;;;;;29.00;13.20;;;;;;;8.19;82.01;100220.72;8506334;27;20083;-81
2022/10/12 17:14:06;;;;;;;22.83;9.45;;;;;;;8.13;82.24;100227.16;8485523;27;20175;-81
2022/10/12 17:18:08;;;;;;;20.98;7.47;;;;;;;8.03;82.64;100223.38;8508983;27;20064;-80
2022/10/12 17:22:11;;;;;;;15.73;7.25;;;;;;;7.97;82.42;100229.81;8504335;27;20047;-80
2022/10/12 17:26:11;;;;;;;16.02;7.05;;;;;;;7.90;82.45;100229.25;8521539;27;20118;-81
2022/10/12 17:30:13;;;;;;;20.05;6.45;;;;;;;7.84;82.43;100219.53;8499180;27;20472;-81
2022/10/12 17:34:25;;;;;;;39.88;12.90;;;;;;;7.79;82.60;100232.97;8510750;27;20043;-80
2022/10/12 17:38:27;;;;;;;47.70;22.45;;;;;;;7.76;82.51;100233.50;8476852;27;20035;-80
2022/10/12 17:42:28;;;;;;;26.55;10.55;;;;;;;7.68;82.62;100225.91;8515803;27;20392;-81
2022/10/12 17:46:29;;;;;;;19.02;6.00;;;;;;;7.56;82.79;100223.44;8495503;27;20133;-80
2022/10/12 17:50:31;;;;;;;21.30;8.30;;;;;;;7.53;82.87;100223.16;8521484;27;20042;-80
2022/10/12 17:54:33;;;;;;;22.38;10.10;;;;;;;7.48;83.01;100225.84;8520644;27;20460;-80
2022/10/12 17:58:35;;;;;;;26.13;10.57;;;;;;;7.46;83.11;100222.59;8513261;27;20449;-81
2022/10/12 18:02:36;;;;;;;31.02;11.68;;;;;;;7.47;83.37;100224.22;8518236;27;20660;-80
2022/10/12 18:06:37;;;;;;;27.15;11.65;;;;;;;7.41;83.29;100226.06;8509371;27;20042;-80
2022/10/12 18:10:40;;;;;;;35.80;14.07;;;;;;;7.36;83.19;100217.97;8507884;27;20043;-80
2022/10/12 18:14:41;;;;;;;47.17;16.17;;;;;;;7.33;83.59;100217.69;8495313;27;20037;-80
2022/10/12 18:18:42;;;;;;;32.55;15.02;;;;;;;7.31;83.43;100225.19;8504411;27;20762;-80
2022/10/12 18:22:43;;;;;;;27.50;12.63;;;;;;;7.26;83.31;100217.09;8509889;27;20107;-80
2022/10/12 18:26:45;;;;;;;22.77;11.15;;;;;;;7.20;83.55;100217.06;8482174;27;20089;-80
2022/10/12 18:30:48;;;;;;;30.23;10.18;;;;;;;7.18;83.57;100211.16;8518038;27;20060;-80
2022/10/12 18:34:49;;;;;;;21.40;8.60;;;;;;;7.16;83.47;100213.28;8504774;27;20046;-80
2022/10/12 18:38:50;;;;;;;26.20;8.70;;;;;;;7.14;83.64;100220.78;8515605;27;20407;-80
2022/10/12 18:42:51;;;;;;;30.73;9.43;;;;;;;7.11;83.71;100226.69;8512701;27;20054;-82
2022/10/12 18:46:52;;;;;;;28.02;9.90;;;;;;;7.08;83.59;100221.84;8499200;27;20487;-81
2022/10/12 18:50:53;;;;;;;28.20;10.23;;;;;;;7.05;84.11;100227.72;8511176;27;20070;-81